createdAt,value
2017-05-05T00:00:29.357Z,0
2017-05-05T00:01:10.036Z,0
2017-05-05T00:01:50.735Z,0
2017-05-05T00:02:31.387Z,0
2017-05-05T00:03:11.948Z,0
2017-05-05T00:03:52.537Z,0
2017-05-05T00:04:33.154Z,0
2017-05-05T00:05:13.776Z,0
2017-05-05T00:05:54.344Z,0
2017-05-05T00:06:34.937Z,0
2017-05-05T00:07:15.562Z,0
2017-05-05T00:07:56.187Z,0
2017-05-05T00:08:36.759Z,0
2017-05-05T00:09:17.362Z,0
2017-05-05T00:09:57.968Z,0
2017-05-05T00:10:38.589Z,0
2017-05-05T00:11:19.174Z,0
2017-05-05T00:11:59.853Z,0
2017-05-05T00:12:40.454Z,0
2017-05-05T00:13:21.014Z,0
2017-05-05T00:14:02.682Z,0
2017-05-05T00:14:43.337Z,0
2017-05-05T00:15:23.939Z,0
2017-05-05T00:16:04.681Z,0
2017-05-05T00:16:45.702Z,0
2017-05-05T00:17:26.273Z,0
2017-05-05T00:18:06.873Z,0
2017-05-05T00:18:47.466Z,0
2017-05-05T00:19:28.110Z,0
2017-05-05T00:20:08.717Z,0
2017-05-05T00:20:49.445Z,0
2017-05-05T00:21:30.070Z,0
2017-05-05T00:22:10.722Z,0
2017-05-05T00:22:51.382Z,0
2017-05-05T00:23:32.035Z,0
2017-05-05T00:24:12.783Z,0
2017-05-05T00:24:53.448Z,0
2017-05-05T00:25:34.010Z,0
2017-05-05T00:26:14.681Z,0
2017-05-05T00:26:55.302Z,0
2017-05-05T00:27:35.877Z,0
2017-05-05T00:28:16.522Z,0
2017-05-05T00:28:57.174Z,0
2017-05-05T00:29:37.781Z,0
2017-05-05T00:30:18.482Z,0
2017-05-05T00:30:59.106Z,0
2017-05-05T00:31:39.766Z,0
2017-05-05T00:32:20.420Z,0
2017-05-05T00:33:01.062Z,0
2017-05-05T00:33:42.747Z,0
2017-05-05T00:34:23.392Z,0
2017-05-05T00:35:03.985Z,0
2017-05-05T00:35:44.653Z,0
2017-05-05T00:36:25.260Z,0
2017-05-05T00:37:06.321Z,0
2017-05-05T00:37:46.885Z,0
2017-05-05T00:38:27.510Z,0
2017-05-05T00:39:08.164Z,0
2017-05-05T00:39:50.153Z,0
2017-05-05T00:40:30.721Z,0
2017-05-05T00:41:11.307Z,0
2017-05-05T00:41:51.921Z,0
2017-05-05T00:42:32.554Z,0
2017-05-05T00:43:13.142Z,0
2017-05-05T00:43:53.761Z,0
2017-05-05T00:44:34.428Z,0
2017-05-05T00:45:15.072Z,0
2017-05-05T00:45:56.145Z,0
2017-05-05T00:46:36.839Z,0
2017-05-05T00:47:17.450Z,0
2017-05-05T00:47:59.122Z,0
2017-05-05T00:48:39.783Z,0
2017-05-05T00:49:20.468Z,0
2017-05-05T00:50:01.080Z,0
2017-05-05T00:50:41.730Z,0
2017-05-05T00:51:22.384Z,0
2017-05-05T00:52:03.037Z,0
2017-05-05T00:52:44.613Z,0
2017-05-05T00:53:25.374Z,0
2017-05-05T00:54:06.423Z,0
2017-05-05T00:54:47.083Z,0
2017-05-05T00:55:27.737Z,0
2017-05-05T00:56:08.394Z,0
2017-05-05T00:56:49.048Z,0
2017-05-05T00:57:29.698Z,0
2017-05-05T00:58:10.352Z,0
2017-05-05T00:58:51.004Z,0
2017-05-05T00:59:31.659Z,0
2017-05-05T01:00:12.306Z,0
2017-05-05T01:00:52.957Z,0
2017-05-05T01:01:33.673Z,0
2017-05-05T01:02:14.268Z,0
2017-05-05T01:02:54.923Z,0
2017-05-05T01:03:35.601Z,0
2017-05-05T01:04:16.225Z,0
2017-05-05T01:04:56.877Z,0
2017-05-05T01:05:37.534Z,0
2017-05-05T01:06:18.181Z,0
2017-05-05T01:06:58.832Z,0
2017-05-05T01:07:39.492Z,0
2017-05-05T01:08:20.143Z,0
2017-05-05T01:09:00.793Z,0
2017-05-05T01:09:41.445Z,0
2017-05-05T01:10:22.008Z,0
2017-05-05T01:11:02.654Z,0
2017-05-05T01:11:43.302Z,0
2017-05-05T01:12:23.955Z,0
2017-05-05T01:13:04.532Z,0
2017-05-05T01:13:45.134Z,0
2017-05-05T01:14:25.720Z,0
2017-05-05T01:15:06.362Z,0
2017-05-05T01:15:46.937Z,0
2017-05-05T01:16:27.526Z,0
2017-05-05T01:17:09.206Z,0
2017-05-05T01:17:50.823Z,0
2017-05-05T01:18:31.382Z,0
2017-05-05T01:19:11.997Z,0
2017-05-05T01:19:52.576Z,0
2017-05-05T01:20:33.238Z,0
2017-05-05T01:21:13.801Z,0
2017-05-05T01:21:54.478Z,0
2017-05-05T01:22:35.088Z,0
2017-05-05T01:23:15.744Z,0
2017-05-05T01:23:56.317Z,0
2017-05-05T01:24:36.907Z,0
2017-05-05T01:25:17.491Z,0
2017-05-05T01:26:00.490Z,0
2017-05-05T01:26:41.074Z,0
2017-05-05T01:27:22.657Z,0
2017-05-05T01:28:03.900Z,0
2017-05-05T01:28:44.560Z,0
2017-05-05T01:29:25.164Z,0
2017-05-05T01:30:05.813Z,0
2017-05-05T01:30:46.404Z,0
2017-05-05T01:31:27.058Z,0
2017-05-05T01:32:07.708Z,0
2017-05-05T01:32:48.360Z,0
2017-05-05T01:33:29.015Z,0
2017-05-05T01:34:09.671Z,0
2017-05-05T01:34:50.321Z,0
2017-05-05T01:35:30.885Z,0
2017-05-05T01:36:11.478Z,0
2017-05-05T01:36:52.063Z,0
2017-05-05T01:37:32.731Z,0
2017-05-05T01:38:13.314Z,0
2017-05-05T01:38:53.966Z,0
2017-05-05T01:39:34.586Z,0
2017-05-05T01:40:15.243Z,0
2017-05-05T01:40:55.887Z,0
2017-05-05T01:41:36.563Z,0
2017-05-05T01:42:17.291Z,0
2017-05-05T01:42:58.877Z,0
2017-05-05T01:43:39.531Z,0
2017-05-05T01:44:20.181Z,0
2017-05-05T01:45:00.835Z,0
2017-05-05T01:45:41.479Z,0
2017-05-05T01:46:22.141Z,0
2017-05-05T01:47:02.791Z,0
2017-05-05T01:47:43.468Z,0
2017-05-05T01:48:24.100Z,0
2017-05-05T01:49:04.754Z,0
2017-05-05T01:49:45.407Z,0
2017-05-05T01:50:26.054Z,0
2017-05-05T01:51:07.834Z,0
2017-05-05T01:51:48.485Z,0
2017-05-05T01:52:31.087Z,0
2017-05-05T01:53:12.776Z,0
2017-05-05T01:53:53.419Z,0
2017-05-05T01:54:34.491Z,0
2017-05-05T01:55:15.142Z,0
2017-05-05T01:55:55.716Z,0
2017-05-05T01:56:36.393Z,0
2017-05-05T01:57:16.992Z,0
2017-05-05T01:57:57.641Z,0
2017-05-05T01:58:38.201Z,0
2017-05-05T01:59:18.817Z,0
2017-05-05T01:59:59.502Z,0
2017-05-05T02:00:40.149Z,0
2017-05-05T02:01:20.809Z,0
2017-05-05T02:02:01.455Z,0
2017-05-05T02:02:42.111Z,0
2017-05-05T02:03:22.765Z,0
2017-05-05T02:04:03.423Z,0
2017-05-05T02:04:45.093Z,0
2017-05-05T02:05:25.745Z,0
2017-05-05T02:06:06.309Z,0
2017-05-05T02:06:47.915Z,0
2017-05-05T02:07:29.547Z,0
2017-05-05T02:08:10.209Z,0
2017-05-05T02:08:50.768Z,0
2017-05-05T02:09:31.367Z,0
2017-05-05T02:10:11.966Z,0
2017-05-05T02:10:52.604Z,0
2017-05-05T02:11:33.259Z,0
2017-05-05T02:12:13.915Z,0
2017-05-05T02:12:54.565Z,0
2017-05-05T02:13:35.232Z,0
2017-05-05T02:14:15.874Z,0
2017-05-05T02:14:56.523Z,0
2017-05-05T02:15:37.081Z,0
2017-05-05T02:16:17.689Z,0
2017-05-05T02:16:58.282Z,0
2017-05-05T02:17:38.938Z,0
2017-05-05T02:18:19.491Z,0
2017-05-05T02:19:00.084Z,0
2017-05-05T02:19:40.682Z,0
2017-05-05T02:20:21.337Z,0
2017-05-05T02:21:01.992Z,0
2017-05-05T02:21:42.646Z,0
2017-05-05T02:22:23.296Z,0
2017-05-05T02:23:03.945Z,0
2017-05-05T02:23:44.603Z,0
2017-05-05T02:24:25.261Z,0
2017-05-05T02:25:05.905Z,0
2017-05-05T02:25:46.568Z,0
2017-05-05T02:26:27.232Z,0
2017-05-05T02:27:07.880Z,0
2017-05-05T02:27:48.537Z,0
2017-05-05T02:28:29.180Z,0
2017-05-05T02:29:09.829Z,0
2017-05-05T02:29:50.484Z,0
2017-05-05T02:30:31.037Z,0
2017-05-05T02:31:11.650Z,0
2017-05-05T02:31:52.232Z,0
2017-05-05T02:32:32.915Z,0
2017-05-05T02:33:13.868Z,0
2017-05-05T02:33:54.455Z,0
2017-05-05T02:34:35.050Z,0
2017-05-05T02:35:16.730Z,0
2017-05-05T02:35:57.281Z,0
2017-05-05T02:36:38.939Z,0
2017-05-05T02:37:20.559Z,0
2017-05-05T02:38:01.183Z,0
2017-05-05T02:38:41.779Z,0
2017-05-05T02:39:22.338Z,0
2017-05-05T02:40:02.938Z,0
2017-05-05T02:40:43.591Z,0
2017-05-05T02:41:24.260Z,0
2017-05-05T02:42:04.900Z,0
2017-05-05T02:42:45.563Z,0
2017-05-05T02:43:26.215Z,0
2017-05-05T02:44:07.875Z,0
2017-05-05T02:44:48.535Z,0
2017-05-05T02:45:29.197Z,0
2017-05-05T02:46:09.842Z,0
2017-05-05T02:46:50.445Z,0
2017-05-05T02:47:31.076Z,0
2017-05-05T02:48:11.713Z,0
2017-05-05T02:48:52.286Z,0
2017-05-05T02:49:32.949Z,0
2017-05-05T02:50:13.544Z,0
2017-05-05T02:50:54.123Z,0
2017-05-05T02:51:34.772Z,0
2017-05-05T02:52:16.439Z,0
2017-05-05T02:52:57.101Z,0
2017-05-05T02:53:37.739Z,0
2017-05-05T02:54:18.411Z,0
2017-05-05T02:54:59.062Z,0
2017-05-05T02:55:39.701Z,0
2017-05-05T02:56:20.351Z,0
2017-05-05T02:57:01.006Z,0
2017-05-05T02:57:41.675Z,0
2017-05-05T02:58:22.309Z,0
2017-05-05T02:59:02.964Z,0
2017-05-05T02:59:43.632Z,0
2017-05-05T03:00:24.268Z,0
2017-05-05T03:01:05.966Z,0
2017-05-05T03:01:46.607Z,0
2017-05-05T03:02:27.252Z,0
2017-05-05T03:03:07.922Z,0
2017-05-05T03:03:48.571Z,0
2017-05-05T03:04:29.153Z,0
2017-05-05T03:05:09.783Z,0
2017-05-05T03:05:50.419Z,0
2017-05-05T03:06:31.068Z,0
2017-05-05T03:07:11.721Z,0
2017-05-05T03:07:52.375Z,0
2017-05-05T03:08:33.025Z,0
2017-05-05T03:09:13.677Z,0
2017-05-05T03:09:54.342Z,0
2017-05-05T03:10:35.001Z,0
2017-05-05T03:11:15.549Z,0
2017-05-05T03:11:56.166Z,0
2017-05-05T03:12:36.835Z,0
2017-05-05T03:13:17.502Z,0
2017-05-05T03:13:58.064Z,0
2017-05-05T03:14:38.673Z,0
2017-05-05T03:15:19.239Z,0
2017-05-05T03:15:59.907Z,0
2017-05-05T03:16:40.473Z,0
2017-05-05T03:17:21.071Z,0
2017-05-05T03:18:01.677Z,0
2017-05-05T03:18:42.317Z,0
2017-05-05T03:19:22.893Z,0
2017-05-05T03:20:03.580Z,0
2017-05-05T03:20:44.179Z,0
2017-05-05T03:21:24.831Z,0
2017-05-05T03:22:05.381Z,0
2017-05-05T03:22:46.024Z,0
2017-05-05T03:23:27.093Z,0
2017-05-05T03:24:07.657Z,0
2017-05-05T03:24:48.302Z,0
2017-05-05T03:25:29.341Z,0
2017-05-05T03:26:10.014Z,0
2017-05-05T03:26:50.661Z,0
2017-05-05T03:27:31.312Z,0
2017-05-05T03:28:11.963Z,0
2017-05-05T03:28:52.615Z,0
2017-05-05T03:29:33.277Z,0
2017-05-05T03:30:13.933Z,0
2017-05-05T03:30:54.498Z,0
2017-05-05T03:31:35.188Z,4
2017-05-05T03:32:15.798Z,4
2017-05-05T03:32:56.435Z,4
2017-05-05T03:33:37.006Z,4
2017-05-05T03:34:17.597Z,4
2017-05-05T03:34:58.193Z,4
2017-05-05T03:35:38.865Z,0
2017-05-05T03:36:19.409Z,4
2017-05-05T03:37:00.002Z,4
2017-05-05T03:37:40.620Z,4
2017-05-05T03:38:21.246Z,4
2017-05-05T03:39:01.814Z,4
2017-05-05T03:39:42.409Z,8
2017-05-05T03:40:22.996Z,8
2017-05-05T03:41:03.579Z,4
2017-05-05T03:41:44.625Z,8
2017-05-05T03:42:25.260Z,8
2017-05-05T03:43:06.645Z,12
2017-05-05T03:43:47.295Z,8
2017-05-05T03:44:27.952Z,12
2017-05-05T03:45:08.589Z,12
2017-05-05T03:45:49.255Z,12
2017-05-05T03:46:29.897Z,12
2017-05-05T03:47:10.560Z,16
2017-05-05T03:47:51.214Z,16
2017-05-05T03:48:31.864Z,20
2017-05-05T03:49:12.523Z,16
2017-05-05T03:49:53.171Z,20
2017-05-05T03:50:33.824Z,16
2017-05-05T03:51:14.479Z,24
2017-05-05T03:51:55.123Z,28
2017-05-05T03:52:35.784Z,28
2017-05-05T03:53:16.844Z,28
2017-05-05T03:53:57.505Z,28
2017-05-05T03:54:38.151Z,32
2017-05-05T03:55:18.819Z,32
2017-05-05T03:55:59.389Z,36
2017-05-05T03:56:40.065Z,40
2017-05-05T03:57:21.069Z,44
2017-05-05T03:58:01.723Z,44
2017-05-05T03:58:42.295Z,48
2017-05-05T03:59:22.879Z,52
2017-05-05T04:00:03.481Z,52
2017-05-05T04:00:44.130Z,60
2017-05-05T04:01:24.691Z,56
2017-05-05T04:02:05.299Z,52
2017-05-05T04:02:45.891Z,52
2017-05-05T04:03:27.947Z,56
2017-05-05T04:04:08.512Z,56
2017-05-05T04:04:49.131Z,60
2017-05-05T04:05:29.724Z,68
2017-05-05T04:06:11.612Z,72
2017-05-05T04:06:52.184Z,80
2017-05-05T04:07:32.808Z,84
2017-05-05T04:08:13.465Z,76
2017-05-05T04:08:54.042Z,84
2017-05-05T04:09:34.664Z,80
2017-05-05T04:10:15.323Z,88
2017-05-05T04:10:55.907Z,88
2017-05-05T04:11:36.545Z,92
2017-05-05T04:12:17.176Z,96
2017-05-05T04:12:58.232Z,96
2017-05-05T04:13:38.903Z,96
2017-05-05T04:14:19.542Z,100
2017-05-05T04:15:00.202Z,116
2017-05-05T04:15:40.903Z,112
2017-05-05T04:16:21.522Z,116
2017-05-05T04:17:02.080Z,116
2017-05-05T04:17:42.758Z,124
2017-05-05T04:18:23.358Z,132
2017-05-05T04:19:04.015Z,148
2017-05-05T04:19:44.593Z,172
2017-05-05T04:20:25.265Z,168
2017-05-05T04:21:05.857Z,184
2017-05-05T04:21:46.527Z,192
2017-05-05T04:22:27.093Z,192
2017-05-05T04:23:07.674Z,196
2017-05-05T04:23:48.285Z,208
2017-05-05T04:24:28.929Z,220
2017-05-05T04:25:09.522Z,232
2017-05-05T04:25:50.202Z,248
2017-05-05T04:26:30.780Z,260
2017-05-05T04:27:11.439Z,268
2017-05-05T04:27:52.110Z,276
2017-05-05T04:28:32.740Z,296
2017-05-05T04:29:13.391Z,292
2017-05-05T04:29:54.068Z,288
2017-05-05T04:30:34.705Z,280
2017-05-05T04:31:15.353Z,284
2017-05-05T04:31:56.014Z,268
2017-05-05T04:32:36.662Z,260
2017-05-05T04:33:17.315Z,280
2017-05-05T04:33:57.984Z,264
2017-05-05T04:34:38.613Z,268
2017-05-05T04:35:19.273Z,276
2017-05-05T04:35:59.932Z,292
2017-05-05T04:36:40.518Z,308
2017-05-05T04:37:21.182Z,304
2017-05-05T04:38:01.772Z,312
2017-05-05T04:38:42.449Z,304
2017-05-05T04:39:23.008Z,304
2017-05-05T04:40:03.616Z,332
2017-05-05T04:40:44.312Z,380
2017-05-05T04:41:24.955Z,380
2017-05-05T04:42:05.604Z,396
2017-05-05T04:42:46.246Z,420
2017-05-05T04:43:26.902Z,440
2017-05-05T04:44:07.568Z,424
2017-05-05T04:44:48.214Z,404
2017-05-05T04:45:28.866Z,416
2017-05-05T04:46:09.518Z,400
2017-05-05T04:46:50.172Z,392
2017-05-05T04:47:30.830Z,392
2017-05-05T04:48:11.498Z,400
2017-05-05T04:48:52.140Z,396
2017-05-05T04:49:32.785Z,384
2017-05-05T04:50:13.443Z,400
2017-05-05T04:50:54.091Z,412
2017-05-05T04:51:34.750Z,416
2017-05-05T04:52:15.397Z,440
2017-05-05T04:52:56.056Z,428
2017-05-05T04:53:36.703Z,416
2017-05-05T04:54:17.361Z,444
2017-05-05T04:54:58.008Z,448
2017-05-05T04:55:38.670Z,404
2017-05-05T04:56:19.240Z,408
2017-05-05T04:57:00.302Z,408
2017-05-05T04:57:40.932Z,432
2017-05-05T04:58:21.597Z,456
2017-05-05T04:59:02.197Z,456
2017-05-05T04:59:42.815Z,456
2017-05-05T05:00:23.441Z,436
2017-05-05T05:01:04.095Z,420
2017-05-05T05:01:44.686Z,432
2017-05-05T05:02:25.341Z,440
2017-05-05T05:03:05.956Z,424
2017-05-05T05:03:46.604Z,380
2017-05-05T05:04:27.181Z,384
2017-05-05T05:05:07.859Z,404
2017-05-05T05:05:48.456Z,392
2017-05-05T05:06:29.110Z,400
2017-05-05T05:07:09.821Z,408
2017-05-05T05:07:50.414Z,396
2017-05-05T05:08:31.090Z,388
2017-05-05T05:09:11.723Z,408
2017-05-05T05:09:52.374Z,400
2017-05-05T05:10:33.022Z,416
2017-05-05T05:11:13.678Z,432
2017-05-05T05:11:54.270Z,428
2017-05-05T05:12:34.966Z,428
2017-05-05T05:13:15.637Z,432
2017-05-05T05:13:56.293Z,432
2017-05-05T05:14:36.882Z,460
2017-05-05T05:15:17.574Z,524
2017-05-05T05:15:58.259Z,512
2017-05-05T05:16:38.950Z,508
2017-05-05T05:17:19.562Z,508
2017-05-05T05:18:01.340Z,464
2017-05-05T05:18:41.995Z,464
2017-05-05T05:19:22.647Z,452
2017-05-05T05:20:03.297Z,472
2017-05-05T05:20:43.960Z,496
2017-05-05T05:21:24.608Z,488
2017-05-05T05:22:05.158Z,504
2017-05-05T05:22:45.804Z,500
2017-05-05T05:23:26.460Z,512
2017-05-05T05:24:07.043Z,504
2017-05-05T05:24:47.670Z,504
2017-05-05T05:25:28.315Z,500
2017-05-05T05:26:08.883Z,524
2017-05-05T05:26:49.514Z,572
2017-05-05T05:27:30.169Z,552
2017-05-05T05:28:10.826Z,588
2017-05-05T05:28:51.482Z,624
2017-05-05T05:29:32.134Z,628
2017-05-05T05:30:12.791Z,588
2017-05-05T05:30:53.445Z,612
2017-05-05T05:31:34.086Z,632
2017-05-05T05:32:14.654Z,684
2017-05-05T05:32:55.243Z,684
2017-05-05T05:33:35.824Z,624
2017-05-05T05:34:16.503Z,564
2017-05-05T05:34:57.125Z,560
2017-05-05T05:35:37.757Z,568
2017-05-05T05:36:18.357Z,600
2017-05-05T05:36:58.930Z,636
2017-05-05T05:37:39.582Z,668
2017-05-05T05:38:20.219Z,704
2017-05-05T05:39:00.787Z,728
2017-05-05T05:39:41.513Z,768
2017-05-05T05:40:22.291Z,804
2017-05-05T05:41:02.898Z,832
2017-05-05T05:41:43.580Z,836
2017-05-05T05:42:24.227Z,796
2017-05-05T05:43:04.884Z,820
2017-05-05T05:43:45.538Z,884
2017-05-05T05:44:26.184Z,872
2017-05-05T05:45:06.839Z,812
2017-05-05T05:45:47.501Z,816
2017-05-05T05:46:28.150Z,808
2017-05-05T05:47:08.797Z,792
2017-05-05T05:47:49.457Z,800
2017-05-05T05:48:30.115Z,796
2017-05-05T05:49:10.754Z,804
2017-05-05T05:49:51.413Z,848
2017-05-05T05:50:32.063Z,868
2017-05-05T05:51:12.715Z,776
2017-05-05T05:51:53.373Z,732
2017-05-05T05:52:34.022Z,696
2017-05-05T05:53:14.675Z,696
2017-05-05T05:53:55.328Z,700
2017-05-05T05:54:36.000Z,696
2017-05-05T05:55:16.634Z,712
2017-05-05T05:55:57.287Z,744
2017-05-05T05:56:37.938Z,764
2017-05-05T05:57:20.027Z,784
2017-05-05T05:58:00.678Z,820
2017-05-05T05:58:41.335Z,868
2017-05-05T05:59:21.987Z,840
2017-05-05T06:00:02.641Z,780
2017-05-05T06:00:43.694Z,752
2017-05-05T06:01:24.355Z,756
2017-05-05T06:02:05.011Z,796
2017-05-05T06:02:45.669Z,824
2017-05-05T06:03:26.315Z,832
2017-05-05T06:04:06.967Z,832
2017-05-05T06:04:48.649Z,812
2017-05-05T06:05:30.344Z,752
2017-05-05T06:06:10.976Z,804
2017-05-05T06:06:52.648Z,888
2017-05-05T06:07:33.307Z,880
2017-05-05T06:08:13.961Z,848
2017-05-05T06:08:54.714Z,860
2017-05-05T06:09:35.376Z,848
2017-05-05T06:10:16.027Z,852
2017-05-05T06:10:56.676Z,868
2017-05-05T06:11:37.331Z,936
2017-05-05T06:12:18.085Z,956
2017-05-05T06:12:58.728Z,988
2017-05-05T06:13:39.398Z,996
2017-05-05T06:14:20.035Z,984
2017-05-05T06:15:00.699Z,992
2017-05-05T06:15:41.346Z,960
2017-05-05T06:16:21.996Z,960
2017-05-05T06:17:02.645Z,952
2017-05-05T06:17:43.314Z,932
2017-05-05T06:18:23.962Z,928
2017-05-05T06:19:04.719Z,960
2017-05-05T06:19:45.378Z,992
2017-05-05T06:20:26.022Z,976
2017-05-05T06:21:06.677Z,996
2017-05-05T06:21:47.321Z,996
2017-05-05T06:22:27.988Z,992
2017-05-05T06:23:08.633Z,980
2017-05-05T06:23:49.315Z,1000
2017-05-05T06:24:30.059Z,1028
2017-05-05T06:25:10.696Z,1064
2017-05-05T06:25:52.386Z,1180
2017-05-05T06:26:33.032Z,1244
2017-05-05T06:27:13.675Z,1248
2017-05-05T06:27:54.432Z,1216
2017-05-05T06:28:35.188Z,1212
2017-05-05T06:29:16.151Z,1244
2017-05-05T06:29:56.799Z,1284
2017-05-05T06:30:37.451Z,1236
2017-05-05T06:31:18.207Z,1216
2017-05-05T06:31:58.859Z,1224
2017-05-05T06:32:39.513Z,1240
2017-05-05T06:33:20.185Z,1188
2017-05-05T06:34:00.824Z,1124
2017-05-05T06:34:41.572Z,1104
2017-05-05T06:35:22.260Z,1116
2017-05-05T06:36:02.986Z,1104
2017-05-05T06:36:43.570Z,1084
2017-05-05T06:37:24.232Z,1072
2017-05-05T06:38:04.926Z,1076
2017-05-05T06:38:46.615Z,1136
2017-05-05T06:39:27.177Z,1220
2017-05-05T06:40:07.897Z,1252
2017-05-05T06:40:48.570Z,1244
2017-05-05T06:41:30.255Z,1244
2017-05-05T06:42:10.908Z,1244
2017-05-05T06:42:51.597Z,1276
2017-05-05T06:43:32.327Z,1288
2017-05-05T06:44:12.987Z,1284
2017-05-05T06:44:53.625Z,1296
2017-05-05T06:45:34.294Z,1288
2017-05-05T06:46:16.969Z,1276
2017-05-05T06:46:57.622Z,1244
2017-05-05T06:47:38.386Z,1240
2017-05-05T06:48:19.031Z,1252
2017-05-05T06:48:59.693Z,1236
2017-05-05T06:49:40.341Z,1252
2017-05-05T06:50:20.991Z,1272
2017-05-05T06:51:01.651Z,1308
2017-05-05T06:51:43.322Z,1304
2017-05-05T06:52:23.988Z,1288
2017-05-05T06:53:04.761Z,1320
2017-05-05T06:53:45.381Z,1348
2017-05-05T06:54:27.060Z,1316
2017-05-05T06:55:07.723Z,1292
2017-05-05T06:55:48.470Z,1296
2017-05-05T06:56:29.060Z,1324
2017-05-05T06:57:09.749Z,1332
2017-05-05T06:57:50.428Z,1328
2017-05-05T06:58:31.091Z,1304
2017-05-05T06:59:11.696Z,1316
2017-05-05T06:59:52.344Z,1328
2017-05-05T07:00:33.044Z,1368
2017-05-05T07:01:14.715Z,1412
2017-05-05T07:01:55.280Z,1536
2017-05-05T07:02:35.987Z,1620
2017-05-05T07:03:17.700Z,1644
2017-05-05T07:03:58.408Z,1680
2017-05-05T07:04:38.963Z,1768
2017-05-05T07:05:19.605Z,1848
2017-05-05T07:06:00.308Z,1824
2017-05-05T07:06:40.969Z,1780
2017-05-05T07:07:21.520Z,1728
2017-05-05T07:08:03.251Z,1664
2017-05-05T07:08:43.966Z,1640
2017-05-05T07:09:24.723Z,1620
2017-05-05T07:10:05.261Z,1608
2017-05-05T07:10:45.986Z,1592
2017-05-05T07:11:26.670Z,1552
2017-05-05T07:12:08.356Z,1520
2017-05-05T07:12:49.007Z,1504
2017-05-05T07:13:29.648Z,1516
2017-05-05T07:14:10.403Z,1548
2017-05-05T07:14:51.060Z,1592
2017-05-05T07:15:31.716Z,1576
2017-05-05T07:16:12.269Z,1540
2017-05-05T07:16:52.969Z,1616
2017-05-05T07:17:33.627Z,1628
2017-05-05T07:18:14.329Z,1604
2017-05-05T07:18:55.080Z,1580
2017-05-05T07:19:35.830Z,1544
2017-05-05T07:20:16.493Z,1512
2017-05-05T07:20:57.142Z,1488
2017-05-05T07:21:37.793Z,1476
2017-05-05T07:22:18.442Z,1472
2017-05-05T07:22:59.206Z,1464
2017-05-05T07:23:39.961Z,1464
2017-05-05T07:24:20.613Z,1428
2017-05-05T07:25:01.264Z,1452
2017-05-05T07:25:41.920Z,1484
2017-05-05T07:26:22.478Z,1492
2017-05-05T07:27:03.186Z,1552
2017-05-05T07:27:43.884Z,1548
2017-05-05T07:28:25.544Z,1548
2017-05-05T07:29:06.103Z,1532
2017-05-05T07:29:46.829Z,1544
2017-05-05T07:30:27.532Z,1548
2017-05-05T07:31:09.188Z,1556
2017-05-05T07:31:49.752Z,1532
2017-05-05T07:32:30.437Z,1504
2017-05-05T07:33:11.146Z,1468
2017-05-05T07:33:51.911Z,1504
2017-05-05T07:34:32.481Z,1448
2017-05-05T07:35:13.168Z,1440
2017-05-05T07:35:53.868Z,1428
2017-05-05T07:36:34.625Z,1480
2017-05-05T07:37:15.368Z,1504
2017-05-05T07:37:56.021Z,1516
2017-05-05T07:38:36.778Z,1540
2017-05-05T07:39:17.434Z,1568
2017-05-05T07:39:58.093Z,1584
2017-05-05T07:40:38.839Z,1592
2017-05-05T07:41:19.599Z,1632
2017-05-05T07:42:01.276Z,1648
2017-05-05T07:42:42.028Z,1636
2017-05-05T07:43:22.806Z,1620
2017-05-05T07:44:03.536Z,1680
2017-05-05T07:44:44.190Z,1704
2017-05-05T07:45:24.953Z,1712
2017-05-05T07:46:05.726Z,1748
2017-05-05T07:46:46.457Z,1748
2017-05-05T07:47:27.221Z,1788
2017-05-05T07:48:07.861Z,1832
2017-05-05T07:48:48.518Z,1844
2017-05-05T07:49:29.283Z,1852
2017-05-05T07:50:09.934Z,1908
2017-05-05T07:50:50.698Z,1960
2017-05-05T07:51:31.267Z,1936
2017-05-05T07:52:11.953Z,1892
2017-05-05T07:52:52.660Z,1836
2017-05-05T07:53:33.371Z,1884
2017-05-05T07:54:13.955Z,1776
2017-05-05T07:54:54.622Z,1708
2017-05-05T07:55:35.473Z,1636
2017-05-05T07:56:16.172Z,1616
2017-05-05T07:56:56.720Z,1592
2017-05-05T07:57:37.385Z,1584
2017-05-05T07:58:18.029Z,1584
2017-05-05T07:58:58.581Z,1612
2017-05-05T07:59:39.252Z,1676
2017-05-05T08:00:19.898Z,1792
2017-05-05T08:01:00.471Z,1932
2017-05-05T08:01:41.197Z,2060
2017-05-05T08:02:21.846Z,2108
2017-05-05T08:03:02.494Z,2120
2017-05-05T08:03:43.159Z,2064
2017-05-05T08:04:23.805Z,2012
2017-05-05T08:05:04.456Z,1972
2017-05-05T08:05:45.116Z,1924
2017-05-05T08:06:25.757Z,1888
2017-05-05T08:07:06.432Z,1848
2017-05-05T08:07:47.004Z,1812
2017-05-05T08:08:27.680Z,1792
2017-05-05T08:09:08.370Z,1772
2017-05-05T08:09:49.034Z,1756
2017-05-05T08:10:29.618Z,1764
2017-05-05T08:11:10.287Z,1792
2017-05-05T08:11:50.992Z,1872
2017-05-05T08:12:31.570Z,2040
2017-05-05T08:13:12.203Z,2256
2017-05-05T08:13:52.850Z,2428
2017-05-05T08:14:33.427Z,2500
2017-05-05T08:15:14.057Z,2600
2017-05-05T08:15:54.695Z,2748
2017-05-05T08:16:35.298Z,2892
2017-05-05T08:17:16.014Z,2996
2017-05-05T08:17:56.651Z,3092
2017-05-05T08:18:37.322Z,3176
2017-05-05T08:19:17.989Z,3264
2017-05-05T08:19:58.652Z,3496
2017-05-05T08:20:39.277Z,3720
2017-05-05T08:21:19.929Z,4032
2017-05-05T08:22:00.570Z,4296
2017-05-05T08:22:41.279Z,4488
2017-05-05T08:23:22.032Z,4632
2017-05-05T08:24:02.797Z,4800
2017-05-05T08:24:43.545Z,4968
2017-05-05T08:25:24.311Z,5092
2017-05-05T08:26:05.161Z,5148
2017-05-05T08:26:45.917Z,5128
2017-05-05T08:27:26.492Z,5156
2017-05-05T08:28:07.187Z,5220
2017-05-05T08:28:47.901Z,5280
2017-05-05T08:29:28.626Z,5464
2017-05-05T08:30:09.183Z,5620
2017-05-05T08:30:49.881Z,5700
2017-05-05T08:31:31.609Z,5592
2017-05-05T08:32:12.364Z,5496
2017-05-05T08:32:52.963Z,5496
2017-05-05T08:33:33.674Z,5572
2017-05-05T08:34:14.350Z,5508
2017-05-05T08:34:55.168Z,5532
2017-05-05T08:35:35.861Z,5552
2017-05-05T08:36:16.596Z,5464
2017-05-05T08:36:57.392Z,5364
2017-05-05T08:37:38.098Z,5380
2017-05-05T08:38:18.854Z,5380
2017-05-05T08:39:00.639Z,5176
2017-05-05T08:39:41.326Z,4828
2017-05-05T08:40:21.985Z,4420
2017-05-05T08:41:02.718Z,4028
2017-05-05T08:41:43.533Z,3736
2017-05-05T08:42:24.121Z,3572
2017-05-05T08:43:04.791Z,3432
2017-05-05T08:43:45.605Z,3380
2017-05-05T08:44:26.342Z,3404
2017-05-05T08:45:07.011Z,3496
2017-05-05T08:45:47.759Z,3608
2017-05-05T08:46:28.518Z,3676
2017-05-05T08:47:09.179Z,3644
2017-05-05T08:47:49.823Z,3552
2017-05-05T08:48:30.473Z,3444
2017-05-05T08:49:11.234Z,3340
2017-05-05T08:49:51.880Z,3252
2017-05-05T08:50:34.728Z,3188
2017-05-05T08:51:16.189Z,3152
2017-05-05T08:51:57.014Z,3160
2017-05-05T08:52:37.674Z,3168
2017-05-05T08:53:18.424Z,3164
2017-05-05T08:53:59.195Z,3160
2017-05-05T08:54:40.080Z,3196
2017-05-05T08:55:20.811Z,3228
2017-05-05T08:56:01.664Z,3252
2017-05-05T08:56:42.509Z,3320
2017-05-05T08:57:23.166Z,3408
2017-05-05T08:58:03.823Z,3508
2017-05-05T08:58:44.591Z,3624
2017-05-05T08:59:25.330Z,3752
2017-05-05T09:00:06.086Z,3868
2017-05-05T09:00:46.897Z,3960
2017-05-05T09:01:27.483Z,4024
2017-05-05T09:02:08.203Z,4048
2017-05-05T09:02:49.058Z,4044
2017-05-05T09:03:29.760Z,4032
2017-05-05T09:04:10.470Z,4056
2017-05-05T09:04:51.119Z,4116
2017-05-05T09:05:31.824Z,4244
2017-05-05T09:06:12.762Z,4376
2017-05-05T09:06:53.578Z,4572
2017-05-05T09:07:34.293Z,4752
2017-05-05T09:08:15.092Z,4908
2017-05-05T09:08:55.810Z,5036
2017-05-05T09:09:36.562Z,5088
2017-05-05T09:10:17.416Z,5032
2017-05-05T09:10:58.067Z,4984
2017-05-05T09:11:38.898Z,4916
2017-05-05T09:12:19.610Z,4864
2017-05-05T09:13:00.789Z,4840
2017-05-05T09:13:41.502Z,4848
2017-05-05T09:14:22.259Z,4864
2017-05-05T09:15:03.016Z,4872
2017-05-05T09:15:43.675Z,4880
2017-05-05T09:16:24.411Z,4936
2017-05-05T09:17:05.081Z,5068
2017-05-05T09:17:45.935Z,5288
2017-05-05T09:18:26.687Z,5576
2017-05-05T09:19:07.738Z,5932
2017-05-05T09:19:48.506Z,6300
2017-05-05T09:20:29.368Z,6644
2017-05-05T09:21:10.130Z,6928
2017-05-05T09:21:51.222Z,7180
2017-05-05T09:22:31.934Z,7268
2017-05-05T09:23:12.744Z,7244
2017-05-05T09:23:53.445Z,7236
2017-05-05T09:24:34.219Z,7260
2017-05-05T09:25:14.970Z,7344
2017-05-05T09:25:55.761Z,7312
2017-05-05T09:26:36.481Z,7208
2017-05-05T09:27:17.216Z,6992
2017-05-05T09:27:58.072Z,6856
2017-05-05T09:28:38.840Z,6840
2017-05-05T09:29:19.600Z,6920
2017-05-05T09:30:00.499Z,7004
2017-05-05T09:30:41.232Z,7072